createdAt,value
2022-11-30T04:36:20.062Z,11.70
2022-11-30T04:39:23.165Z,13.10
2022-11-30T04:42:25.464Z,11.60
2022-11-30T04:45:32.486Z,10.93
2022-11-30T04:48:37.846Z,13.40
2022-11-30T04:51:40.484Z,11.95
2022-11-30T04:54:42.761Z,11.82
2022-11-30T04:57:48.087Z,10.73
2022-11-30T05:00:53.402Z,10.07
2022-11-30T05:03:59.783Z,11.38
2022-11-30T05:07:03.394Z,10.90
2022-11-30T05:10:07.711Z,10.70
2022-11-30T05:13:10.299Z,10.40
2022-11-30T05:16:13.129Z,10.30
2022-11-30T05:19:16.247Z,9.80
2022-11-30T05:22:18.997Z,12.48
2022-11-30T05:25:21.432Z,11.50
2022-11-30T05:28:24.402Z,10.73
2022-11-30T05:31:26.947Z,11.18
2022-11-30T05:34:29.641Z,10.10
2022-11-30T05:37:32.065Z,9.25
2022-11-30T05:40:35.258Z,9.67
2022-11-30T05:43:37.769Z,11.38
2022-11-30T05:46:41.212Z,9.40
2022-11-30T05:52:46.449Z,9.10
2022-11-30T05:55:48.773Z,8.95
2022-11-30T05:58:51.436Z,8.60
2022-11-30T06:01:54.772Z,8.50
2022-11-30T06:04:57.589Z,8.73
2022-11-30T06:08:00.925Z,10.07
2022-11-30T06:11:04.293Z,10.27
2022-11-30T06:14:06.868Z,9.52
2022-11-30T06:17:09.547Z,8.80
2022-11-30T06:20:12.369Z,9.73
2022-11-30T06:23:14.965Z,9.35
2022-11-30T06:26:17.357Z,9.65
2022-11-30T06:29:20.609Z,7.97
2022-11-30T06:32:22.902Z,8.68
2022-11-30T06:35:28.648Z,9.00
2022-11-30T06:38:31.144Z,9.30
2022-11-30T06:41:33.838Z,7.35
2022-11-30T06:44:36.154Z,7.47
2022-11-30T06:47:38.853Z,9.25
2022-11-30T06:50:45.504Z,7.95
2022-11-30T06:53:51.211Z,8.70
2022-11-30T06:56:53.462Z,8.43
2022-11-30T06:59:56.904Z,9.20
2022-11-30T07:02:59.248Z,8.77
2022-11-30T07:06:07.114Z,7.95
2022-11-30T07:09:10.436Z,8.15
2022-11-30T07:15:15.799Z,8.05
2022-11-30T07:18:18.799Z,8.48
2022-11-30T07:21:21.127Z,7.37
2022-11-30T07:24:42.561Z,8.23
2022-11-30T07:27:44.823Z,6.40
2022-11-30T07:30:48.886Z,7.47
2022-11-30T07:33:52.146Z,7.62
2022-11-30T07:36:54.808Z,5.97
2022-11-30T07:39:57.294Z,8.07
2022-11-30T07:42:59.840Z,6.62
2022-11-30T07:46:03.202Z,7.85
2022-11-30T07:49:07.458Z,7.03
2022-11-30T07:52:09.756Z,7.35
2022-11-30T07:55:12.266Z,7.22
2022-11-30T07:58:17.440Z,6.97
2022-11-30T08:01:22.724Z,6.95
2022-11-30T08:04:25.433Z,7.40
2022-11-30T08:07:28.093Z,8.13
2022-11-30T08:10:31.113Z,7.78
2022-11-30T08:13:33.439Z,6.55
2022-11-30T08:16:38.188Z,7.32
2022-11-30T08:19:40.636Z,8.85
2022-11-30T08:22:43.207Z,7.72
2022-11-30T08:25:45.523Z,6.82
2022-11-30T08:28:50.091Z,6.50
2022-11-30T08:31:52.524Z,8.07
2022-11-30T08:34:55.237Z,7.53
2022-11-30T08:37:57.567Z,7.15
2022-11-30T08:41:00.613Z,7.07
2022-11-30T08:44:03.163Z,8.87
2022-11-30T08:47:07.274Z,7.67
2022-11-30T08:50:10.392Z,7.30
2022-11-30T08:53:13.011Z,7.30
2022-11-30T08:56:20.845Z,7.30
2022-11-30T08:59:23.456Z,6.18
2022-11-30T09:02:26.694Z,7.73
2022-11-30T09:05:29.377Z,6.72
2022-11-30T09:08:32.387Z,7.18
2022-11-30T09:11:35.792Z,6.60
2022-11-30T09:14:38.161Z,7.00
2022-11-30T09:17:41.017Z,7.47
2022-11-30T09:20:43.413Z,7.30
2022-11-30T09:23:46.501Z,6.18
2022-11-30T09:26:48.870Z,6.65
2022-11-30T09:29:51.653Z,6.27
2022-11-30T09:32:53.996Z,6.45
2022-11-30T09:36:01.797Z,6.80
2022-11-30T09:39:04.154Z,6.18
2022-11-30T09:42:22.141Z,7.63
2022-11-30T09:45:30.289Z,7.35
2022-11-30T09:48:40.356Z,6.60
2022-11-30T09:51:47.514Z,6.97
2022-11-30T09:54:50.724Z,7.78
2022-11-30T09:57:56.661Z,6.70
2022-11-30T10:01:05.056Z,7.47
2022-11-30T10:04:24.725Z,6.97
2022-11-30T10:07:32.990Z,5.95
2022-11-30T10:10:53.815Z,7.50
2022-11-30T10:14:16.149Z,7.35
2022-11-30T10:17:34.202Z,7.18
2022-11-30T10:21:13.174Z,7.65
2022-11-30T10:24:41.582Z,6.25
2022-11-30T10:27:51.295Z,6.72
2022-11-30T10:31:01.814Z,6.60
2022-11-30T10:34:21.270Z,7.68
2022-11-30T10:37:39.581Z,6.68
2022-11-30T10:40:52.872Z,7.72
2022-11-30T10:44:02.614Z,6.05
2022-11-30T10:47:22.327Z,6.93
2022-11-30T10:50:29.167Z,6.45
2022-11-30T10:53:37.211Z,7.60
2022-11-30T10:56:39.788Z,5.82
2022-11-30T10:59:52.694Z,5.75
2022-11-30T11:02:55.603Z,7.07
2022-11-30T11:06:11.169Z,6.60
2022-11-30T11:09:38.536Z,6.10
2022-11-30T11:12:49.845Z,6.15
2022-11-30T11:16:00.294Z,5.53
2022-11-30T11:19:02.724Z,5.32
2022-11-30T11:22:20.826Z,6.03
2022-11-30T11:25:37.748Z,5.80
2022-11-30T11:28:45.461Z,6.05
2022-11-30T11:31:48.681Z,4.90
2022-11-30T11:37:53.973Z,5.32
2022-11-30T11:41:02.467Z,5.45
2022-11-30T11:44:08.317Z,6.97
2022-11-30T11:47:23.837Z,6.50
2022-11-30T11:54:01.791Z,7.00
2022-11-30T11:57:13.282Z,6.43
2022-11-30T12:00:18.502Z,6.22
2022-11-30T12:03:40.016Z,5.75
2022-11-30T12:06:45.243Z,6.80
2022-11-30T12:10:49.490Z,6.07
2022-11-30T12:13:42.022Z,6.90
2022-11-30T12:17:02.814Z,6.72
2022-11-30T12:20:14.082Z,8.10
2022-11-30T12:23:46.083Z,5.87
2022-11-30T12:26:58.410Z,6.43
2022-11-30T12:30:12.227Z,6.95
2022-11-30T12:33:17.413Z,6.82
2022-11-30T12:36:25.554Z,6.75
2022-11-30T12:39:40.167Z,5.72
2022-11-30T12:43:25.428Z,4.30
2022-11-30T12:46:27.628Z,5.60
2022-11-30T12:49:57.645Z,4.60
2022-11-30T12:53:18.255Z,5.05
2022-11-30T12:56:41.311Z,4.93
2022-11-30T13:00:02.525Z,4.12
2022-11-30T13:03:41.852Z,4.12
2022-11-30T13:06:49.019Z,3.12
2022-11-30T13:10:04.163Z,4.32
2022-11-30T13:13:13.682Z,4.20
2022-11-30T13:16:18.348Z,5.15
2022-11-30T13:19:28.564Z,3.50
2022-11-30T13:22:46.810Z,3.65
2022-11-30T13:26:08.605Z,3.53
2022-11-30T13:29:25.427Z,5.05
2022-11-30T13:32:57.541Z,3.60
2022-11-30T13:35:55.062Z,3.90
2022-11-30T13:39:20.132Z,4.22
2022-11-30T13:42:50.091Z,3.55
2022-11-30T13:46:19.189Z,3.80
2022-11-30T13:49:27.862Z,2.92
2022-11-30T13:52:58.527Z,3.62
2022-11-30T13:56:04.079Z,3.75
2022-11-30T13:59:24.538Z,4.03
2022-11-30T14:02:33.345Z,3.87
2022-11-30T14:05:38.505Z,3.80
2022-11-30T14:08:40.849Z,4.12
2022-11-30T14:11:46.554Z,4.30
2022-11-30T14:14:49.037Z,3.00
2022-11-30T14:17:56.944Z,3.57
2022-11-30T14:21:19.970Z,4.40
2022-11-30T14:24:23.987Z,3.93
2022-11-30T14:27:29.544Z,4.78
2022-11-30T14:30:34.126Z,3.67
2022-11-30T14:33:44.238Z,4.43
2022-11-30T14:36:53.621Z,3.85
2022-11-30T14:39:56.656Z,4.28
2022-11-30T14:43:01.653Z,3.40
2022-11-30T14:46:09.192Z,3.03
2022-11-30T14:49:22.793Z,3.85
2022-11-30T14:52:53.100Z,4.57
2022-11-30T14:56:02.515Z,4.25
2022-11-30T14:59:37.249Z,3.90
2022-11-30T15:02:43.020Z,3.75
2022-11-30T15:05:45.550Z,4.35
2022-11-30T15:08:54.421Z,4.43
2022-11-30T15:11:58.052Z,3.37
2022-11-30T15:15:22.729Z,3.53
2022-11-30T15:18:26.150Z,3.70
2022-11-30T15:24:31.894Z,3.20
2022-11-30T15:27:34.588Z,3.37
2022-11-30T15:30:40.539Z,4.03
2022-11-30T15:33:45.962Z,4.37
2022-11-30T15:36:48.640Z,3.87
2022-11-30T15:39:56.943Z,6.03
2022-11-30T15:43:00.637Z,2.87
2022-11-30T15:46:03.776Z,3.30
2022-11-30T15:49:12.501Z,3.72
2022-11-30T15:52:17.448Z,3.20
2022-11-30T15:55:46.877Z,3.87
2022-11-30T15:59:05.040Z,2.80
2022-11-30T16:02:25.323Z,3.78
2022-11-30T16:05:28.002Z,2.85
2022-11-30T16:08:30.835Z,3.62
2022-11-30T16:11:34.857Z,3.35
2022-11-30T16:14:37.174Z,4.00
2022-11-30T16:17:39.682Z,3.95
2022-11-30T16:20:43.376Z,4.43
2022-11-30T16:23:47.098Z,3.87
2022-11-30T16:26:51.924Z,4.00
2022-11-30T16:29:55.311Z,4.60
2022-11-30T16:32:57.741Z,4.60
2022-11-30T16:36:08.127Z,5.10
2022-11-30T16:39:12.441Z,5.32
2022-11-30T16:42:15.151Z,4.93
2022-11-30T16:45:23.659Z,5.53
2022-11-30T16:48:26.353Z,5.85
